Flugplatz Hohenfels Army Air Field

Bericht für ETIH

vom 28.01. um 16:56 UTC

Wind 12 kt aus 260° in Böen 22 kt

Sichtweite 10 km oder mehr

gering bewölkt in 2400 ft

Temperatur 2.2°C

Taupunkt -2.0°C

Luftfeuchtigkeit 74%

Luftdruck 1002 hPa

ETIH 281656Z AUTO 26012G22KT 9999 FEW024 02/M02 A2958 RMK AO2 SLP033 T00221020
Keine Prognose (TAF) verfügbar.
Impressum